Map

Track Data

SID SEASON NUMBER BASIN SUBBASIN NAME ISO_TIME NATURE LAT LON WMO_WIND WMO_PRES WMO_AGENCY TRACK_TYPE DIST2LAND LANDFALL IFLAG USA_AGENCY USA_ATCF_ID USA_LAT USA_LON USA_RECORD USA_STATUS USA_WIND USA_PRES USA_SSHS USA_R34_NE USA_R34_SE USA_R34_SW USA_R34_NW USA_R50_NE USA_R50_SE USA_R50_SW USA_R50_NW USA_R64_NE USA_R64_SE USA_R64_SW USA_R64_NW USA_POCI USA_ROCI USA_RMW USA_EYE TOKYO_LAT TOKYO_LON TOKYO_GRADE TOKYO_WIND TOKYO_PRES TOKYO_R50_DIR TOKYO_R50_LONG TOKYO_R50_SHORT TOKYO_R30_DIR TOKYO_R30_LONG TOKYO_R30_SHORT TOKYO_LAND CMA_LAT CMA_LON CMA_CAT CMA_WIND CMA_PRES HKO_LAT HKO_LON HKO_CAT HKO_WIND HKO_PRES NEWDELHI_LAT NEWDELHI_LON NEWDELHI_GRADE NEWDELHI_WIND NEWDELHI_PRES NEWDELHI_CI NEWDELHI_DP NEWDELHI_POCI REUNION_LAT REUNION_LON REUNION_TYPE REUNION_WIND REUNION_PRES REUNION_TNUM REUNION_CI REUNION_RMW REUNION_R34_NE REUNION_R34_SE REUNION_R34_SW REUNION_R34_NW REUNION_R50_NE REUNION_R50_SE REUNION_R50_SW REUNION_R50_NW REUNION_R64_NE REUNION_R64_SE REUNION_R64_SW REUNION_R64_NW BOM_LAT BOM_LON BOM_TYPE BOM_WIND BOM_PRES BOM_TNUM BOM_CI BOM_RMW BOM_R34_NE BOM_R34_SE BOM_R34_SW BOM_R34_NW BOM_R50_NE BOM_R50_SE BOM_R50_SW BOM_R50_NW BOM_R64_NE BOM_R64_SE BOM_R64_SW BOM_R64_NW BOM_ROCI BOM_POCI BOM_EYE BOM_POS_METHOD BOM_PRES_METHOD NADI_LAT NADI_LON NADI_CAT NADI_WIND NADI_PRES WELLINGTON_LAT WELLINGTON_LON WELLINGTON_WIND WELLINGTON_PRES DS824_LAT DS824_LON DS824_STAGE DS824_WIND DS824_PRES TD9636_LAT TD9636_LON TD9636_STAGE TD9636_WIND TD9636_PRES TD9635_LAT TD9635_LON TD9635_WIND TD9635_PRES TD9635_ROCI NEUMANN_LAT NEUMANN_LON NEUMANN_CLASS NEUMANN_WIND NEUMANN_PRES MLC_LAT MLC_LON MLC_CLASS MLC_WIND MLC_PRES USA_GUST BOM_GUST BOM_GUST_PER REUNION_GUST REUNION_GUST_PER USA_SEAHGT USA_SEARAD_NE USA_SEARAD_SE USA_SEARAD_SW USA_SEARAD_NW STORM_SPEED STORM_DIR
1926122S21154 1926 19 SP EA NOT_NAMED 1926-05-01 12:00:00 NR -21.2000 153.800 main 341 337 __________O___ -1 -21.2000 153.800 7 3 148
1926122S21154 1926 19 SP EA NOT_NAMED 1926-05-01 15:00:00 NR -21.3250 153.882 main 346 338 __________P___ -1 -21.3250 153.882 7 3 153
1926122S21154 1926 19 SP EA NOT_NAMED 1926-05-01 18:00:00 NR -21.4800 153.952 main 348 341 __________P___ -1 -21.4800 153.952 7 4 165
1926122S21154 1926 19 SP EA NOT_NAMED 1926-05-01 21:00:00 NR -21.6950 153.995 main 341 321 __________P___ -1 -21.6950 153.995 7 5 175
1926122S21154 1926 19 SP EA NOT_NAMED 1926-05-02 00:00:00 NR -22.0000 154.000 main 321 277 __________O___ -1 -22.0000 154.000 7 7 183
1926122S21154 1926 19 SP EA NOT_NAMED 1926-05-02 03:00:00 NR -22.4138 153.959 main 277 220 __________P___ -1 -22.4138 153.959 7 9 186
1926122S21154 1926 19 SP EA NOT_NAMED 1926-05-02 06:00:00 NR -22.9101 153.894 main 220 164 __________P___ -1 -22.9101 153.894 7 11 187
1926122S21154 1926 19 SP EA NOT_NAMED 1926-05-02 09:00:00 NR -23.4513 153.831 main 153 102 __________P___ -1 -23.4513 153.831 7 11 185
1926122S21154 1926 19 SP EA NOT_NAMED 1926-05-02 12:00:00 NR -24.0000 153.800 main 102 60 __________O___ -1 -24.0000 153.800 7 11 181
1926122S21154 1926 19 SP EA NOT_NAMED 1926-05-02 15:00:00 NR -24.5039 153.807 main 60 40 __________P___ -1 -24.5039 153.807 7 10 177
1926122S21154 1926 19 SP EA NOT_NAMED 1926-05-02 18:00:00 NR -25.0072 153.853 main 50 50 __________P___ -1 -25.0072 153.853 7 10 173
1926122S21154 1926 19 SP EA NOT_NAMED 1926-05-02 21:00:00 NR -25.5069 153.948 main 68 68 __________P___ -1 -25.5069 153.948 7 10 167
1926122S21154 1926 19 SP EA NOT_NAMED 1926-05-03 00:00:00 NR -26.0000 154.100 main 99 99 __________O___ -1 -26.0000 154.100 7 10 162
1926122S21154 1926 19 SP EA NOT_NAMED 1926-05-03 03:00:00 NR -26.5024 154.297 main 119 119 __________P___ -1 -26.5024 154.297 7 11 158
1926122S21154 1926 19 SP EA NOT_NAMED 1926-05-03 06:00:00 NR -26.9948 154.552 main 138 132 __________P___ -1 -26.9948 154.552 7 11 153
1926122S21154 1926 19 SP EA NOT_NAMED 1926-05-03 09:00:00 NR -27.4648 154.857 main 149 144 __________P___ -1 -27.4648 154.857 7 11 148
1926122S21154 1926 19 SP EA NOT_NAMED 1926-05-03 12:00:00 NR -27.9000 155.200 main 160 160 __________O___ -1 -27.9000 155.200 7 11 143
1926122S21154 1926 19 SP EA NOT_NAMED 1926-05-03 15:00:00 NR -28.3023 155.568 main 195 195 __________P___ -1 -28.3023 155.568 7 10 139
1926122S21154 1926 19 SP EA NOT_NAMED 1926-05-03 18:00:00 NR -28.6677 155.970 main 233 233 __________P___ -1 -28.6677 155.970 7 10 134
1926122S21154 1926 19 SP EA NOT_NAMED 1926-05-03 21:00:00 NR -28.9992 156.387 main 272 272 __________P___ -1 -28.9992 156.387 7 10 131
1926122S21154 1926 19 SP EA NOT_NAMED 1926-05-04 00:00:00 NR -29.3000 156.800 main 313 313 __________O___ -1 -29.3000 156.800 7 9 131
1926122S21154 1926 19 SP EA NOT_NAMED 1926-05-04 03:00:00 NR -29.5946 157.183 main 357 357 __________P___ -1 -29.5946 157.183 7 9 130
1926122S21154 1926 19 SP EA NOT_NAMED 1926-05-04 06:00:00 NR -29.8594 157.558 main 402 402 __________P___ -1 -29.8594 157.558 7 8 128
1926122S21154 1926 19 SP EA NOT_NAMED 1926-05-04 09:00:00 NR -30.0946 157.930 main 436 436 __________P___ -1 -30.0946 157.930 7 8 124
1926122S21154 1926 19 SP EA NOT_NAMED 1926-05-04 12:00:00 NR -30.3000 158.300 main 479 479 __________O___ -1 -30.3000 158.300 7 8 120
1926122S21154 1926 19 SP EA NOT_NAMED 1926-05-04 15:00:00 NR -30.4664 158.684 main 522 522 __________P___ -1 -30.4664 158.684 7 7 115
1926122S21154 1926 19 SP EA NOT_NAMED 1926-05-04 18:00:00 NR -30.6073 159.066 main 561 561 __________P___ -1 -30.6073 159.066 7 7 113
1926122S21154 1926 19 SP EA NOT_NAMED 1926-05-04 21:00:00 NR -30.7446 159.440 main 591 591 __________P___ -1 -30.7446 159.440 7 7 115
1926122S21154 1926 19 SP EA NOT_NAMED 1926-05-05 00:00:00 NR -30.9000 159.800 main 632 632 __________O___ -1 -30.9000 159.800 7 7 121
1926122S21154 1926 19 SP MM NOT_NAMED 1926-05-05 03:00:00 NR -31.1073 160.151 main 673 673 __________P___ -1 -31.1073 160.151 7 7 126
1926122S21154 1926 19 SP MM NOT_NAMED 1926-05-05 06:00:00 NR -31.3347 160.487 main 702 702 __________P___ -1 -31.3347 160.487 7 7 130
1926122S21154 1926 19 SP MM NOT_NAMED 1926-05-05 09:00:00 NR -31.5699 160.805 main 731 731 __________P___ -1 -31.5699 160.805 7 7 132
1926122S21154 1926 19 SP MM NOT_NAMED 1926-05-05 12:00:00 NR -31.8000 161.100 main 761 761 __________O___ -1 -31.8000 161.100 7 7 133
1926122S21154 1926 19 SP MM NOT_NAMED 1926-05-05 15:00:00 NR -32.0155 161.372 main 791 791 __________P___ -1 -32.0155 161.372 7 6 133
1926122S21154 1926 19 SP MM NOT_NAMED 1926-05-05 18:00:00 NR -32.2178 161.625 main 812 812 __________P___ -1 -32.2178 161.625 7 6 134
1926122S21154 1926 19 SP MM NOT_NAMED 1926-05-05 21:00:00 NR -32.4112 161.865 main 842 842 __________P___ -1 -32.4112 161.865 7 6 134
1926122S21154 1926 19 SP MM NOT_NAMED 1926-05-06 00:00:00 NR -32.6000 162.100 main 864 __________O___ -1 -32.6000 162.100 7 5 134

Digital Typhoon Data and Search

About IBTrACS Database

This database is a web-friendly format of International Best Track Archive for Climate Stewardship (IBTrACS), a global best track data archive curated by NOAA dating back to 1842.

Updated: 2021-12-01